Time,TemperatureF,DewpointF,PressureIn,WindDirection,WindDirectionDegrees,WindSpeedMPH,WindSpeedGustMPH,Humidity,HourlyPrecipIn,Conditions,Clouds,dailyrainin,SoftwareType,DateUTC
2013-03-29 00:00:00,25.3,12.6,30.27,WNW,292,0.0,0.0,58,0.00,CLR,,0.00,WeatherDisplay:10.37,2013-03-29 05:00:00,
2013-03-29 00:05:00,25.0,12.7,30.27,WNW,292,0.0,0.0,59,0.00,CLR,,0.00,WeatherDisplay:10.37,2013-03-29 05:05:00,
2013-03-29 00:10:00,24.6,12.7,30.27,WNW,292,0.0,0.0,60,0.00,CLR,,0.00,WeatherDisplay:10.37,2013-03-29 05:10:00,
2013-03-29 00:15:00,24.4,12.5,30.27,WNW,292,0.0,0.0,60,0.00,CLR,,0.00,WeatherDisplay:10.37,2013-03-29 05:15:00,
2013-03-29 00:20:00,24.3,12.4,30.27,WNW,292,0.0,0.0,60,0.00,CLR,,0.00,WeatherDisplay:10.37,2013-03-29 05:20:00,
2013-03-29 00:25:00,23.9,12.4,30.27,WNW,292,0.0,0.0,61,0.00,CLR,,0.00,WeatherDisplay:10.37,2013-03-29 05:25:00,
2013-03-29 00:30:00,23.5,11.7,30.27,WNW,292,0.0,0.0,60,0.00,CLR,,0.00,WeatherDisplay:10.37,2013-03-29 05:30:00,
2013-03-29 00:35:00,23.4,11.9,30.27,NNW,338,1.1,1.4,61,0.00,CLR,,0.00,WeatherDisplay:10.37,2013-03-29 05:35:00,
2013-03-29 00:40:00,23.4,11.5,30.27,NNW,338,1.6,1.6,60,0.00,CLR,,0.00,WeatherDisplay:10.37,2013-03-29 05:40:00,
2013-03-29 00:45:00,23.4,11.5,30.27,NNW,338,0.0,2.3,60,0.00,CLR,,0.00,WeatherDisplay:10.37,2013-03-29 05:45:00,
2013-03-29 00:50:00,23.2,12.1,30.27,NNW,338,0.0,0.0,62,0.00,CLR,,0.00,WeatherDisplay:10.37,2013-03-29 05:50:00,
2013-03-29 00:55:00,23.4,11.9,30.27,NNW,338,0.0,0.0,61,0.00,CLR,,0.00,WeatherDisplay:10.37,2013-03-29 05:55:00,
2013-03-29 01:00:00,23.0,12.3,30.27,NNW,338,0.0,0.0,63,0.00,CLR,,0.00,WeatherDisplay:10.37,2013-03-29 06:00:00,
2013-03-29 01:05:00,22.8,12.1,30.27,NNW,338,0.0,0.0,63,0.00,CLR,,0.00,WeatherDisplay:10.37,2013-03-29 06:05:00,
2013-03-29 01:10:00,22.5,11.4,30.27,NNW,338,0.0,0.0,62,0.00,CLR,,0.00,WeatherDisplay:10.37,2013-03-29 06:10:00,
2013-03-29 01:15:00,22.3,11.6,30.27,NNW,338,0.0,0.0,63,0.00,CLR,,0.00,WeatherDisplay:10.37,2013-03-29 06:15:00,
2013-03-29 01:20:00,22.1,11.8,30.27,NNW,338,0.0,0.0,64,0.00,CLR,,0.00,WeatherDisplay:10.37,2013-03-29 06:20:00,
2013-03-29 01:25:00,21.9,11.9,30.27,NNW,338,0.0,0.0,65,0.00,CLR,,0.00,WeatherDisplay:10.37,2013-03-29 06:25:00,
2013-03-29 01:30:00,21.9,11.9,30.27,NNW,338,0.0,0.0,65,0.00,CLR,,0.00,WeatherDisplay:10.37,2013-03-29 06:30:00,
2013-03-29 01:35:00,21.9,11.6,30.27,NNW,338,0.0,0.0,64,0.00,CLR,,0.00,WeatherDisplay:10.37,2013-03-29 06:35:00,
2013-03-29 01:40:00,21.7,11.4,30.27,NNW,338,1.4,1.6,64,0.00,CLR,,0.00,WeatherDisplay:10.37,2013-03-29 06:40:00,
2013-03-29 01:45:00,21.7,11.1,30.27,NNW,338,0.0,0.0,63,0.00,CLR,,0.00,WeatherDisplay:10.37,2013-03-29 06:45:00,
2013-03-29 01:50:00,21.7,11.8,30.27,NNW,338,0.0,0.0,65,0.00,CLR,,0.00,WeatherDisplay:10.37,2013-03-29 06:50:00,
2013-03-29 01:55:00,21.6,11.6,30.27,NNW,338,0.0,0.0,65,0.00,CLR,,0.00,WeatherDisplay:10.37,2013-03-29 06:55:00,
2013-03-29 02:00:00,21.6,11.6,30.27,NNW,338,0.0,0.0,65,0.00,CLR,,0.00,WeatherDisplay:10.37,2013-03-29 07:00:00,
2013-03-29 02:05:00,21.4,11.8,30.27,NNW,338,0.0,0.0,66,0.00,CLR,,0.00,WeatherDisplay:10.37,2013-03-29 07:05:00,
2013-03-29 02:10:00,21.2,11.3,30.30,NNW,338,0.0,0.0,65,0.00,CLR,,0.00,WeatherDisplay:10.37,2013-03-29 07:10:00,
2013-03-29 02:15:00,21.4,11.8,30.30,NNW,338,0.0,0.0,66,0.00,CLR,,0.00,WeatherDisplay:10.37,2013-03-29 07:15:00,
2013-03-29 02:20:00,21.2,11.9,30.30,NNW,338,0.0,0.0,67,0.00,CLR,,0.00,WeatherDisplay:10.37,2013-03-29 07:20:00,
2013-03-29 02:25:00,21.0,12.1,30.27,NNW,338,0.0,0.0,68,0.00,CLR,,0.00,WeatherDisplay:10.37,2013-03-29 07:25:00,
2013-03-29 02:30:00,21.0,11.8,30.27,NNW,338,1.4,1.6,67,0.00,CLR,,0.00,WeatherDisplay:10.37,2013-03-29 07:30:00,
2013-03-29 02:35:00,21.0,11.8,30.27,NNW,338,0.0,1.1,67,0.00,CLR,,0.00,WeatherDisplay:10.37,2013-03-29 07:35:00,
2013-03-29 02:40:00,20.8,11.9,30.30,NNW,338,0.0,0.0,68,0.00,CLR,,0.00,WeatherDisplay:10.37,2013-03-29 07:40:00,
2013-03-29 02:45:00,20.7,12.1,30.30,NNW,338,0.0,0.0,69,0.00,CLR,,0.00,WeatherDisplay:10.37,2013-03-29 07:45:00,
2013-03-29 02:50:00,20.5,11.9,30.30,NNW,338,0.0,0.0,69,0.00,CLR,,0.00,WeatherDisplay:10.37,2013-03-29 07:50:00,
2013-03-29 02:55:00,20.5,11.9,30.27,NNW,338,0.0,0.0,69,0.00,CLR,,0.00,WeatherDisplay:10.37,2013-03-29 07:55:00,
2013-03-29 03:00:00,20.5,11.6,30.27,NNW,338,0.0,0.0,68,0.00,CLR,,0.00,WeatherDisplay:10.37,2013-03-29 08:00:00,
2013-03-29 03:05:00,20.3,11.7,30.27,NNW,338,0.0,0.0,69,0.00,CLR,,0.00,WeatherDisplay:10.37,2013-03-29 08:05:00,
2013-03-29 03:10:00,20.1,11.9,30.27,NNW,338,0.0,0.0,70,0.00,CLR,,0.00,WeatherDisplay:10.37,2013-03-29 08:10:00,
2013-03-29 03:15:00,20.3,12.1,30.27,NNW,338,0.0,0.0,70,0.00,CLR,,0.00,WeatherDisplay:10.37,2013-03-29 08:15:00,
2013-03-29 03:20:00,20.3,12.1,30.27,NNW,338,0.0,0.0,70,0.00,CLR,,0.00,WeatherDisplay:10.37,2013-03-29 08:20:00,
2013-03-29 03:25:00,20.1,11.9,30.27,NNW,338,0.0,0.0,70,0.00,CLR,,0.00,WeatherDisplay:10.37,2013-03-29 08:25:00,
2013-03-29 03:30:00,19.9,11.7,30.27,NNW,338,0.0,0.0,70,0.00,CLR,,0.00,WeatherDisplay:10.37,2013-03-29 08:30:00,
2013-03-29 03:35:00,19.9,11.7,30.27,NNW,338,0.0,0.0,70,0.00,CLR,,0.00,WeatherDisplay:10.37,2013-03-29 08:35:00,
2013-03-29 03:40:00,19.8,11.9,30.27,NNW,338,0.0,0.0,71,0.00,CLR,,0.00,WeatherDisplay:10.37,2013-03-29 08:40:00,
2013-03-29 03:45:00,19.8,11.9,30.27,NNW,338,0.0,0.0,71,0.00,CLR,,0.00,WeatherDisplay:10.37,2013-03-29 08:45:00,
2013-03-29 03:50:00,19.8,11.9,30.27,NNW,338,0.0,0.0,71,0.00,CLR,,0.00,WeatherDisplay:10.37,2013-03-29 08:50:00,
2013-03-29 03:56:00,19.8,11.9,30.27,NNW,338,0.0,0.0,71,0.00,CLR,,0.00,WeatherDisplay:10.37,2013-03-29 08:56:00,
2013-03-29 04:01:00,19.9,11.7,30.27,NNW,338,0.0,0.0,70,0.00,CLR,,0.00,WeatherDisplay:10.37,2013-03-29 09:01:00,
2013-03-29 04:06:00,20.1,12.2,30.27,NNW,338,0.0,0.0,71,0.00,CLR,,0.00,WeatherDisplay:10.37,2013-03-29 09:06:00,
2013-03-29 04:11:00,19.8,11.9,30.27,NNW,338,0.0,0.0,71,0.00,CLR,,0.00,WeatherDisplay:10.37,2013-03-29 09:11:00,
2013-03-29 04:16:00,19.6,11.7,30.27,NNW,338,0.0,0.0,71,0.00,CLR,,0.00,WeatherDisplay:10.37,2013-03-29 09:16:00,
2013-03-29 04:21:00,19.4,11.8,30.27,NNW,338,0.0,0.0,72,0.00,CLR,,0.00,WeatherDisplay:10.37,2013-03-29 09:21:00,
2013-03-29 04:26:00,19.4,11.5,30.27,NNW,338,0.0,0.0,71,0.00,CLR,,0.00,WeatherDisplay:10.37,2013-03-29 09:26:00,
2013-03-29 04:31:00,19.2,11.4,30.27,NNW,338,0.0,0.0,71,0.00,CLR,,0.00,WeatherDisplay:10.37,2013-03-29 09:31:00,
2013-03-29 04:36:00,19.0,11.5,30.27,NNW,338,0.0,0.0,72,0.00,CLR,,0.00,WeatherDisplay:10.37,2013-03-29 09:36:00,
2013-03-29 04:41:00,19.0,11.2,30.27,NNW,338,0.0,0.0,71,0.00,CLR,,0.00,WeatherDisplay:10.37,2013-03-29 09:41:00,
2013-03-29 04:46:00,19.2,11.4,30.27,NNW,338,1.1,1.6,71,0.00,CLR,,0.00,WeatherDisplay:10.37,2013-03-29 09:46:00,
2013-03-29 04:51:00,19.4,11.5,30.27,NNW,338,0.0,0.0,71,0.00,CLR,,0.00,WeatherDisplay:10.37,2013-03-29 09:51:00,
2013-03-29 04:56:00,19.6,12.0,30.27,NNW,338,0.0,0.0,72,0.00,CLR,,0.00,WeatherDisplay:10.37,2013-03-29 09:56:00,
2013-03-29 05:01:00,19.4,11.8,30.27,NNW,338,0.0,0.0,72,0.00,CLR,,0.00,WeatherDisplay:10.37,2013-03-29 10:01:00,
2013-03-29 05:06:00,19.0,11.5,30.27,NNW,338,0.0,0.0,72,0.00,CLR,,0.00,WeatherDisplay:10.37,2013-03-29 10:06:00,
2013-03-29 05:11:00,18.7,11.1,30.27,NNW,338,0.0,0.0,72,0.00,CLR,,0.00,WeatherDisplay:10.37,2013-03-29 10:11:00,
2013-03-29 05:16:00,18.7,11.1,30.27,NNW,338,0.0,0.0,72,0.00,CLR,,0.00,WeatherDisplay:10.37,2013-03-29 10:16:00,
2013-03-29 05:21:00,18.7,11.1,30.27,NNW,338,0.0,0.0,72,0.00,CLR,,0.00,WeatherDisplay:10.37,2013-03-29 10:21:00,
2013-03-29 05:26:00,18.7,11.1,30.27,NNW,338,0.0,0.0,72,0.00,CLR,,0.00,WeatherDisplay:10.37,2013-03-29 10:26:00,
2013-03-29 05:31:00,18.7,11.1,30.27,West,270,0.0,0.0,72,0.00,CLR,,0.00,WeatherDisplay:10.37,2013-03-29 10:31:00,
2013-03-29 05:36:00,18.7,11.5,30.27,West,270,0.0,0.0,73,0.00,CLR,,0.00,WeatherDisplay:10.37,2013-03-29 10:36:00,
2013-03-29 05:41:00,18.7,11.5,30.27,West,270,0.0,0.0,73,0.00,CLR,,0.00,WeatherDisplay:10.37,2013-03-29 10:41:00,
2013-03-29 05:46:00,18.9,11.6,30.27,West,270,0.0,0.0,73,0.00,CLR,,0.00,WeatherDisplay:10.37,2013-03-29 10:46:00,
2013-03-29 05:51:00,18.7,11.5,30.27,West,270,0.0,0.0,73,0.00,CLR,,0.00,WeatherDisplay:10.37,2013-03-29 10:51:00,
2013-03-29 05:56:00,18.7,11.5,30.27,West,270,0.0,0.0,73,0.00,CLR,,0.00,WeatherDisplay:10.37,2013-03-29 10:56:00,
2013-03-29 06:01:00,18.7,11.5,30.27,West,270,0.0,0.0,73,0.00,CLR,,0.00,WeatherDisplay:10.37,2013-03-29 11:01:00,
2013-03-29 06:06:00,18.3,11.1,30.27,West,270,0.0,0.0,73,0.00,CLR,,0.00,WeatherDisplay:10.37,2013-03-29 11:06:00,
2013-03-29 06:11:00,17.8,10.6,30.27,West,270,0.0,0.0,73,0.00,CLR,,0.00,WeatherDisplay:10.37,2013-03-29 11:11:00,
2013-03-29 06:16:00,17.6,10.4,30.27,West,270,0.0,0.0,73,0.00,CLR,,0.00,WeatherDisplay:10.37,2013-03-29 11:16:00,
2013-03-29 06:21:00,17.4,10.2,30.27,West,270,0.0,0.0,73,0.00,CLR,,0.00,WeatherDisplay:10.37,2013-03-29 11:21:00,
2013-03-29 06:26:00,17.4,10.2,30.30,West,270,0.0,0.0,73,0.00,CLR,,0.00,WeatherDisplay:10.37,2013-03-29 11:26:00,
2013-03-29 06:31:00,17.6,10.4,30.30,West,270,0.0,0.0,73,0.00,CLR,,0.00,WeatherDisplay:10.37,2013-03-29 11:31:00,
2013-03-29 06:36:00,17.6,10.4,30.30,NW,315,0.0,0.0,73,0.00,CLR,,0.00,WeatherDisplay:10.37,2013-03-29 11:36:00,
2013-03-29 06:41:00,17.6,10.4,30.30,NW,315,1.6,2.0,73,0.00,CLR,,0.00,WeatherDisplay:10.37,2013-03-29 11:41:00,
2013-03-29 06:47:00,17.8,10.6,30.30,NW,315,1.6,2.3,73,0.00,CLR,,0.00,WeatherDisplay:10.37,2013-03-29 11:47:00,
2013-03-29 06:52:00,18.0,11.1,30.30,NW,315,0.0,0.0,74,0.00,CLR,,0.00,WeatherDisplay:10.37,2013-03-29 11:52:00,
2013-03-29 06:57:00,18.0,11.1,30.30,NW,315,0.0,0.0,74,0.00,CLR,,0.00,WeatherDisplay:10.37,2013-03-29 11:57:00,
2013-03-29 07:02:00,18.5,11.6,30.30,NW,315,0.0,0.0,74,0.00,CLR,,0.00,WeatherDisplay:10.37,2013-03-29 12:02:00,
2013-03-29 07:07:00,19.4,12.5,30.30,NW,315,0.0,0.0,74,0.00,CLR,,0.00,WeatherDisplay:10.37,2013-03-29 12:07:00,
2013-03-29 07:12:00,20.3,13.6,30.30,NW,315,0.0,0.0,75,0.00,CLR,,0.00,WeatherDisplay:10.37,2013-03-29 12:12:00,
2013-03-29 07:17:00,21.2,14.5,30.30,NW,315,0.0,0.0,75,0.00,CLR,,0.00,WeatherDisplay:10.37,2013-03-29 12:17:00,
2013-03-29 07:22:00,22.1,15.4,30.30,NW,315,0.0,0.0,75,0.00,CLR,,0.00,WeatherDisplay:10.37,2013-03-29 12:22:00,
2013-03-29 07:27:00,23.5,16.8,30.30,NW,315,0.0,0.0,75,0.00,CLR,,0.00,WeatherDisplay:10.37,2013-03-29 12:27:00,
2013-03-29 07:32:00,24.6,18.4,30.30,NW,315,0.0,0.0,77,0.00,CLR,,0.00,WeatherDisplay:10.37,2013-03-29 12:32:00,
2013-03-29 07:37:00,25.9,19.4,30.30,NW,315,0.0,0.0,76,0.00,CLR,,0.00,WeatherDisplay:10.37,2013-03-29 12:37:00,
2013-03-29 07:42:00,27.0,20.1,30.33,NW,315,0.0,0.0,75,0.00,CLR,,0.00,WeatherDisplay:10.37,2013-03-29 12:42:00,
2013-03-29 07:47:00,28.0,20.8,30.33,NW,315,0.0,0.0,74,0.00,CLR,,0.00,WeatherDisplay:10.37,2013-03-29 12:47:00,
2013-03-29 07:52:00,27.9,19.7,30.33,NW,315,0.0,0.0,71,0.00,CLR,,0.00,WeatherDisplay:10.37,2013-03-29 12:52:00,
2013-03-29 07:57:00,28.2,19.0,30.30,NW,315,0.0,0.0,68,0.00,CLR,,0.00,WeatherDisplay:10.37,2013-03-29 12:57:00,
2013-03-29 08:03:00,30.9,21.6,30.30,NW,315,0.0,0.0,68,0.00,CLR,,0.00,WeatherDisplay:10.37,2013-03-29 13:03:00,
2013-03-29 08:08:00,32.9,23.5,30.30,NW,315,0.0,0.0,68,0.00,CLR,,0.00,WeatherDisplay:10.37,2013-03-29 13:08:00,
2013-03-29 08:13:00,34.5,24.3,30.30,NW,315,0.0,0.0,66,0.00,CLR,,0.00,WeatherDisplay:10.37,2013-03-29 13:13:00,
2013-03-29 08:18:00,35.4,24.1,30.30,NW,315,0.0,0.0,63,0.00,CLR,,0.00,WeatherDisplay:10.37,2013-03-29 13:18:00,
2013-03-29 08:23:00,36.3,23.8,30.30,NW,315,0.0,0.0,60,0.00,CLR,,0.00,WeatherDisplay:10.37,2013-03-29 13:23:00,
2013-03-29 08:28:00,36.3,22.5,30.30,NW,315,0.0,0.0,57,0.00,CLR,,0.00,WeatherDisplay:10.37,2013-03-29 13:28:00,
2013-03-29 08:33:00,37.9,23.2,30.30,NW,315,0.0,0.0,55,0.00,CLR,,0.00,WeatherDisplay:10.37,2013-03-29 13:33:00,
2013-03-29 08:38:00,38.7,21.6,30.30,NW,315,0.0,0.0,50,0.00,CLR,,0.00,WeatherDisplay:10.37,2013-03-29 13:38:00,
2013-03-29 08:43:00,40.5,23.3,30.30,NW,315,0.0,0.0,50,0.00,CLR,,0.00,WeatherDisplay:10.37,2013-03-29 13:43:00,
2013-03-29 08:48:00,41.9,24.1,30.30,NW,315,0.0,0.0,49,0.00,CLR,,0.00,WeatherDisplay:10.37,2013-03-29 13:48:00,
2013-03-29 08:53:00,43.2,24.8,30.30,NW,315,0.0,0.0,48,0.00,CLR,,0.00,WeatherDisplay:10.37,2013-03-29 13:53:00,
2013-03-29 08:58:00,42.4,22.6,30.27,NW,315,0.0,0.0,45,0.00,CLR,,0.00,WeatherDisplay:10.37,2013-03-29 13:58:00,
2013-03-29 09:03:00,43.9,23.9,30.27,NNW,338,0.0,0.0,45,0.00,CLR,,0.00,WeatherDisplay:10.37,2013-03-29 14:03:00,
2013-03-29 09:08:00,45.5,25.4,30.27,NNW,338,0.0,0.0,45,0.00,CLR,,0.00,WeatherDisplay:10.37,2013-03-29 14:08:00,
2013-03-29 09:13:00,46.0,24.8,30.27,NNW,338,0.0,0.0,43,0.00,CLR,,0.00,WeatherDisplay:10.37,2013-03-29 14:13:00,
2013-03-29 09:18:00,46.6,23.5,30.27,NNE,22,0.0,0.0,40,0.00,CLR,,0.00,WeatherDisplay:10.37,2013-03-29 14:18:00,
2013-03-29 09:23:00,47.7,25.1,30.27,NNE,22,0.0,0.0,41,0.00,CLR,,0.00,WeatherDisplay:10.37,2013-03-29 14:23:00,
2013-03-29 09:28:00,48.9,25.0,30.30,NNE,22,0.0,0.0,39,0.00,CLR,,0.00,WeatherDisplay:10.37,2013-03-29 14:28:00,
2013-03-29 09:33:00,46.6,22.9,30.30,NNE,22,0.0,0.0,39,0.00,CLR,,0.00,WeatherDisplay:10.37,2013-03-29 14:33:00,
2013-03-29 09:38:00,48.2,23.7,30.30,NNE,22,0.0,0.0,38,0.00,CLR,,0.00,WeatherDisplay:10.37,2013-03-29 14:38:00,
2013-03-29 09:43:00,48.2,23.7,30.30,WSW,248,0.0,0.0,38,0.00,CLR,,0.00,WeatherDisplay:10.37,2013-03-29 14:43:00,
2013-03-29 09:48:00,50.9,25.5,30.30,West,270,0.9,2.3,37,0.00,CLR,,0.00,WeatherDisplay:10.37,2013-03-29 14:48:00,
2013-03-29 09:53:00,51.3,25.8,30.30,WSW,248,0.9,1.1,37,0.00,CLR,,0.00,WeatherDisplay:10.37,2013-03-29 14:53:00,
2013-03-29 09:58:00,50.4,23.7,30.30,South,180,0.9,2.3,35,0.00,CLR,,0.00,WeatherDisplay:10.37,2013-03-29 14:58:00,
2013-03-29 10:03:00,51.3,23.8,30.30,East,90,2.2,2.3,34,0.00,CLR,,0.00,WeatherDisplay:10.37,2013-03-29 15:03:00,
2013-03-29 10:08:00,51.1,23.7,30.30,SW,225,1.6,2.3,34,0.00,CLR,,0.00,WeatherDisplay:10.37,2013-03-29 15:08:00,
2013-03-29 10:13:00,52.9,24.5,30.30,WSW,248,0.0,0.0,33,0.00,CLR,,0.00,WeatherDisplay:10.37,2013-03-29 15:13:00,
2013-03-29 10:18:00,53.2,23.3,30.30,SSE,158,2.0,2.3,31,0.00,CLR,,0.00,WeatherDisplay:10.37,2013-03-29 15:18:00,
2013-03-29 10:23:00,52.3,21.8,30.30,ESE,112,2.0,2.3,30,0.00,CLR,,0.00,WeatherDisplay:10.37,2013-03-29 15:23:00,
2013-03-29 10:28:00,52.9,23.0,30.30,West,270,2.2,4.6,31,0.00,CLR,,0.00,WeatherDisplay:10.37,2013-03-29 15:28:00,
2013-03-29 10:33:00,53.1,22.4,30.30,SW,225,1.6,2.3,30,0.00,CLR,,0.00,WeatherDisplay:10.37,2013-03-29 15:33:00,
2013-03-29 10:38:00,54.1,22.5,30.30,SSW,202,2.0,3.5,29,0.00,CLR,,0.00,WeatherDisplay:10.37,2013-03-29 15:38:00,
2013-03-29 10:43:00,55.0,22.5,30.30,WSW,248,0.9,1.4,28,0.00,CLR,,0.00,WeatherDisplay:10.37,2013-03-29 15:43:00,
2013-03-29 10:48:00,54.1,21.7,30.30,SSW,202,2.0,2.3,28,0.00,CLR,,0.00,WeatherDisplay:10.37,2013-03-29 15:48:00,
2013-03-29 10:53:00,56.7,23.0,30.30,SSW,202,0.0,2.3,27,0.00,CLR,,0.00,WeatherDisplay:10.37,2013-03-29 15:53:00,
2013-03-29 10:58:00,57.2,23.5,30.27,WSW,248,0.9,2.3,27,0.00,CLR,,0.00,WeatherDisplay:10.37,2013-03-29 15:58:00,
2013-03-29 11:03:00,55.9,22.4,30.27,ESE,112,3.3,3.6,27,0.00,CLR,,0.00,WeatherDisplay:10.37,2013-03-29 16:03:00,
2013-03-29 11:08:00,55.2,20.9,30.27,ESE,112,3.6,4.6,26,0.00,CLR,,0.00,WeatherDisplay:10.37,2013-03-29 16:08:00,
2013-03-29 11:13:00,55.0,20.7,30.30,ESE,112,2.4,4.6,26,0.00,CLR,,0.00,WeatherDisplay:10.37,2013-03-29 16:13:00,
2013-03-29 11:18:00,54.5,20.3,30.30,ESE,112,3.3,4.9,26,0.00,CLR,,0.00,WeatherDisplay:10.37,2013-03-29 16:18:00,
2013-03-29 11:23:00,53.6,19.5,30.30,SE,135,3.3,4.6,26,0.00,CLR,,0.00,WeatherDisplay:10.37,2013-03-29 16:23:00,
2013-03-29 11:28:00,53.4,20.2,30.30,South,180,1.6,4.6,27,0.00,CLR,,0.00,WeatherDisplay:10.37,2013-03-29 16:28:00,
2013-03-29 11:33:00,54.5,20.3,30.30,ESE,112,4.3,4.6,26,0.00,CLR,,0.00,WeatherDisplay:10.37,2013-03-29 16:33:00,
2013-03-29 11:38:00,54.0,19.8,30.30,SE,135,2.4,4.6,26,0.00,CLR,,0.00,WeatherDisplay:10.37,2013-03-29 16:38:00,
2013-03-29 11:43:00,54.3,20.1,30.33,SE,135,3.1,4.6,26,0.00,CLR,,0.00,WeatherDisplay:10.37,2013-03-29 16:43:00,
2013-03-29 11:48:00,54.5,20.3,30.33,SSW,202,3.1,3.5,26,0.00,CLR,,0.00,WeatherDisplay:10.37,2013-03-29 16:48:00,
2013-03-29 11:53:00,54.3,20.1,30.33,ESE,112,4.5,4.5,26,0.00,CLR,,0.00,WeatherDisplay:10.37,2013-03-29 16:53:00,
2013-03-29 11:58:00,53.6,19.5,30.30,SE,135,3.8,5.6,26,0.00,CLR,,0.00,WeatherDisplay:10.37,2013-03-29 16:58:00,
2013-03-29 12:04:00,53.2,19.2,30.30,SE,135,3.8,4.6,26,0.00,CLR,,0.00,WeatherDisplay:10.37,2013-03-29 17:04:00,
2013-03-29 12:09:00,54.5,20.3,30.30,West,270,1.6,3.5,26,0.00,CLR,,0.00,WeatherDisplay:10.37,2013-03-29 17:09:00,
2013-03-29 12:14:00,55.6,20.3,30.27,WSW,248,0.0,1.1,25,0.00,CLR,,0.00,WeatherDisplay:10.37,2013-03-29 17:14:00,
2013-03-29 12:19:00,55.8,20.4,30.27,SSW,202,3.1,4.7,25,0.00,CLR,,0.00,WeatherDisplay:10.37,2013-03-29 17:19:00,
2013-03-29 12:24:00,54.1,19.0,30.27,East,90,4.3,5.8,25,0.00,CLR,,0.00,WeatherDisplay:10.37,2013-03-29 17:24:00,
2013-03-29 12:29:00,54.3,19.2,30.27,SSE,158,3.1,4.7,25,0.00,CLR,,0.00,WeatherDisplay:10.37,2013-03-29 17:29:00,
2013-03-29 12:34:00,54.1,19.0,30.27,East,90,2.4,5.8,25,0.00,CLR,,0.00,WeatherDisplay:10.37,2013-03-29 17:34:00,
2013-03-29 12:39:00,54.7,19.5,30.27,East,90,2.0,3.5,25,0.00,CLR,,0.00,WeatherDisplay:10.37,2013-03-29 17:39:00,
2013-03-29 12:44:00,53.6,18.6,30.27,East,90,3.1,4.6,25,0.00,CLR,,0.00,WeatherDisplay:10.37,2013-03-29 17:44:00,
2013-03-29 12:49:00,54.0,19.8,30.27,ESE,112,3.6,4.6,26,0.00,CLR,,0.00,WeatherDisplay:10.37,2013-03-29 17:49:00,
2013-03-29 12:54:00,53.6,19.5,30.27,SSE,158,2.6,4.6,26,0.00,CLR,,0.00,WeatherDisplay:10.37,2013-03-29 17:54:00,
2013-03-29 12:59:00,54.5,20.3,30.27,West,270,0.9,3.5,26,0.00,CLR,,0.00,WeatherDisplay:10.37,2013-03-29 17:59:00,
2013-03-29 13:04:00,55.4,20.1,30.27,SSW,202,2.9,4.6,25,0.00,CLR,,0.00,WeatherDisplay:10.37,2013-03-29 18:04:00,
2013-03-29 13:09:00,53.6,18.6,30.27,SE,135,2.6,3.5,25,0.00,CLR,,0.00,WeatherDisplay:10.37,2013-03-29 18:09:00,
2013-03-29 13:14:00,54.1,19.0,30.25,South,180,2.2,3.5,25,0.00,CLR,,0.00,WeatherDisplay:10.37,2013-03-29 18:14:00,
2013-03-29 13:19:00,55.8,20.4,30.25,SSW,202,1.6,2.3,25,0.00,CLR,,0.00,WeatherDisplay:10.37,2013-03-29 18:19:00,
2013-03-29 13:24:00,55.9,20.6,30.25,South,180,2.2,3.5,25,0.00,CLR,,0.00,WeatherDisplay:10.37,2013-03-29 18:24:00,
2013-03-29 13:29:00,55.0,19.8,30.25,NW,315,2.6,2.6,25,0.00,CLR,,0.00,WeatherDisplay:10.37,2013-03-29 18:29:00,
2013-03-29 13:34:00,54.5,20.3,30.25,SSW,202,2.0,2.3,26,0.00,CLR,,0.00,WeatherDisplay:10.37,2013-03-29 18:34:00,
2013-03-29 13:39:00,57.0,21.5,30.25,SSW,202,0.0,1.1,25,0.00,CLR,,0.00,WeatherDisplay:10.37,2013-03-29 18:39:00,
2013-03-29 13:44:00,56.8,21.3,30.25,South,180,2.0,2.3,25,0.00,CLR,,0.00,WeatherDisplay:10.37,2013-03-29 18:44:00,
2013-03-29 13:50:00,56.3,20.9,30.25,West,270,1.6,2.4,25,0.00,CLR,,0.00,WeatherDisplay:10.37,2013-03-29 18:50:00,
2013-03-29 13:55:00,56.8,21.3,30.25,SSE,158,2.0,3.5,25,0.00,CLR,,0.00,WeatherDisplay:10.37,2013-03-29 18:55:00,
2013-03-29 14:00:00,56.0,17.6,30.25,SW,216,2.0,6.0,22,0.00,CLR,,0.00,WeatherDisplay:10.37,2013-03-29 19:00:00,
2013-03-29 14:05:00,55.0,17.8,30.25,South,187,2.0,5.0,23,0.00,CLR,,0.00,WeatherDisplay:10.37,2013-03-29 19:05:00,
2013-03-29 14:10:00,55.8,20.4,30.25,South,180,1.6,4.6,25,0.00,CLR,,0.00,WeatherDisplay:10.37,2013-03-29 19:10:00,
2013-03-29 14:15:00,54.7,19.5,30.25,SSE,158,1.1,2.3,25,0.00,CLR,,0.00,WeatherDisplay:10.37,2013-03-29 19:15:00,
2013-03-29 14:20:00,54.9,17.7,30.25,WSW,248,1.4,2.3,23,0.00,CLR,,0.00,WeatherDisplay:10.37,2013-03-29 19:20:00,
2013-03-29 14:25:00,55.9,17.6,30.25,SW,225,1.1,2.3,22,0.00,CLR,,0.00,WeatherDisplay:10.37,2013-03-29 19:25:00,
2013-03-29 14:30:00,55.6,17.3,30.25,SSE,158,2.6,5.6,22,0.00,CLR,,0.00,WeatherDisplay:10.37,2013-03-29 19:30:00,
2013-03-29 14:35:00,54.7,19.5,30.25,South,180,1.6,4.6,25,0.00,CLR,,0.00,WeatherDisplay:10.37,2013-03-29 19:35:00,
2013-03-29 14:40:00,55.2,20.0,30.25,ESE,112,1.1,2.3,25,0.00,CLR,,0.00,WeatherDisplay:10.37,2013-03-29 19:40:00,
2013-03-29 14:45:00,56.8,18.3,30.25,East,90,1.4,2.3,22,0.00,CLR,,0.00,WeatherDisplay:10.37,2013-03-29 19:45:00,
2013-03-29 14:50:00,54.7,17.6,30.25,SSW,202,3.3,4.6,23,0.00,CLR,,0.00,WeatherDisplay:10.37,2013-03-29 19:50:00,
2013-03-29 14:55:00,54.9,17.7,30.25,East,90,3.3,5.8,23,0.00,CLR,,0.00,WeatherDisplay:10.37,2013-03-29 19:55:00,
2013-03-29 15:00:00,54.5,17.4,30.25,ESE,112,3.6,3.6,23,0.00,CLR,,0.00,WeatherDisplay:10.37,2013-03-29 20:00:00,
2013-03-29 15:05:00,54.7,17.6,30.25,WSW,248,1.1,3.5,23,0.00,CLR,,0.00,WeatherDisplay:10.37,2013-03-29 20:05:00,
2013-03-29 15:10:00,56.1,17.7,30.25,WSW,248,0.0,0.0,22,0.00,CLR,,0.00,WeatherDisplay:10.37,2013-03-29 20:10:00,
2013-03-29 15:15:00,55.4,17.1,30.25,SE,135,3.1,4.6,22,0.00,CLR,,0.00,WeatherDisplay:10.37,2013-03-29 20:15:00,
2013-03-29 15:20:00,54.7,17.6,30.25,SSE,158,3.3,5.8,23,0.00,CLR,,0.00,WeatherDisplay:10.37,2013-03-29 20:20:00,
2013-03-29 15:25:00,54.3,17.3,30.22,SW,225,2.0,3.5,23,0.00,CLR,,0.00,WeatherDisplay:10.37,2013-03-29 20:25:00,
2013-03-29 15:30:00,55.4,17.1,30.22,WSW,248,2.2,2.3,22,0.00,CLR,,0.00,WeatherDisplay:10.37,2013-03-29 20:30:00,
2013-03-29 15:35:00,54.5,17.4,30.22,ESE,112,2.9,5.8,23,0.00,CLR,,0.00,WeatherDisplay:10.37,2013-03-29 20:35:00,
2013-03-29 15:40:00,54.7,19.5,30.22,WSW,248,1.6,2.3,25,0.00,CLR,,0.00,WeatherDisplay:10.37,2013-03-29 20:40:00,
2013-03-29 15:45:00,55.4,20.1,30.22,WSW,248,2.2,2.3,25,0.00,CLR,,0.00,WeatherDisplay:10.37,2013-03-29 20:45:00,
2013-03-29 15:50:00,56.1,20.7,30.22,SSE,158,1.1,4.6,25,0.00,CLR,,0.00,WeatherDisplay:10.37,2013-03-29 20:50:00,
2013-03-29 15:55:00,55.9,20.6,30.19,NNW,338,0.0,1.1,25,0.00,CLR,,0.00,WeatherDisplay:10.37,2013-03-29 20:55:00,
2013-03-29 16:00:00,55.8,20.4,30.19,South,180,1.1,4.0,25,0.00,CLR,,0.00,WeatherDisplay:10.37,2013-03-29 21:00:00,
2013-03-29 16:05:00,55.2,20.0,30.19,WSW,248,0.0,0.0,25,0.00,CLR,,0.00,WeatherDisplay:10.37,2013-03-29 21:05:00,
2013-03-29 16:10:00,55.4,20.1,30.19,ESE,112,1.4,2.9,25,0.00,CLR,,0.00,WeatherDisplay:10.37,2013-03-29 21:10:00,
2013-03-29 16:15:00,54.1,19.0,30.19,ESE,112,4.3,4.6,25,0.00,CLR,,0.00,WeatherDisplay:10.37,2013-03-29 21:15:00,
2013-03-29 16:20:00,54.0,18.9,30.19,SE,135,2.2,4.7,25,0.00,CLR,,0.00,WeatherDisplay:10.37,2013-03-29 21:20:00,
2013-03-29 16:25:00,53.8,18.7,30.19,East,90,2.6,3.5,25,0.00,CLR,,0.00,WeatherDisplay:10.37,2013-03-29 21:25:00,
2013-03-29 16:30:00,53.8,18.7,30.19,South,180,1.1,2.3,25,0.00,CLR,,0.00,WeatherDisplay:10.37,2013-03-29 21:30:00,
2013-03-29 16:35:00,53.4,19.3,30.19,SSW,202,3.1,4.6,26,0.00,CLR,,0.00,WeatherDisplay:10.37,2013-03-29 21:35:00,
2013-03-29 16:40:00,53.6,18.6,30.19,South,180,3.3,5.8,25,0.00,CLR,,0.00,WeatherDisplay:10.37,2013-03-29 21:40:00,
2013-03-29 16:45:00,53.2,19.2,30.19,SE,135,2.2,4.6,26,0.00,CLR,,0.00,WeatherDisplay:10.37,2013-03-29 21:45:00,
2013-03-29 16:50:00,53.2,19.2,30.19,ESE,112,3.3,4.6,26,0.00,CLR,,0.00,WeatherDisplay:10.37,2013-03-29 21:50:00,
2013-03-29 16:55:00,52.7,18.7,30.19,SE,135,2.6,3.5,26,0.00,CLR,,0.00,WeatherDisplay:10.37,2013-03-29 21:55:00,
2013-03-29 17:00:00,52.5,18.6,30.19,ESE,112,3.1,4.6,26,0.00,CLR,,0.00,WeatherDisplay:10.37,2013-03-29 22:00:00,
2013-03-29 17:05:00,51.6,17.8,30.19,SE,135,2.9,3.5,26,0.00,CLR,,0.00,WeatherDisplay:10.37,2013-03-29 22:05:00,
2013-03-29 17:10:00,51.3,17.5,30.16,SE,135,2.4,3.8,26,0.00,CLR,,0.00,WeatherDisplay:10.37,2013-03-29 22:10:00,
2013-03-29 17:15:00,51.6,17.8,30.16,South,180,2.6,3.5,26,0.00,CLR,,0.00,WeatherDisplay:10.37,2013-03-29 22:15:00,
2013-03-29 17:20:00,52.3,18.4,30.16,SSE,158,1.6,2.3,26,0.00,CLR,,0.00,WeatherDisplay:10.37,2013-03-29 22:20:00,
2013-03-29 17:25:00,51.8,18.0,30.16,ESE,112,2.9,3.5,26,0.00,CLR,,0.00,WeatherDisplay:10.37,2013-03-29 22:25:00,
2013-03-29 17:30:00,51.1,17.3,30.16,East,90,2.0,2.6,26,0.00,CLR,,0.00,WeatherDisplay:10.37,2013-03-29 22:30:00,
2013-03-29 17:35:00,50.7,17.0,30.16,SSE,158,2.6,5.8,26,0.00,CLR,,0.00,WeatherDisplay:10.37,2013-03-29 22:35:00,
2013-03-29 17:40:00,50.7,17.0,30.16,SE,135,3.1,5.8,26,0.00,CLR,,0.00,WeatherDisplay:10.37,2013-03-29 22:40:00,
2013-03-29 17:45:00,51.4,18.5,30.16,SSW,202,1.1,3.5,27,0.00,CLR,,0.00,WeatherDisplay:10.37,2013-03-29 22:45:00,
2013-03-29 17:50:00,51.1,18.2,30.16,SSE,158,3.3,4.9,27,0.00,CLR,,0.00,WeatherDisplay:10.37,2013-03-29 22:50:00,
2013-03-29 17:55:00,51.3,18.4,30.19,SSE,158,2.0,3.5,27,0.00,CLR,,0.00,WeatherDisplay:10.37,2013-03-29 22:55:00,
2013-03-29 18:00:00,50.7,17.0,30.19,SSE,158,0.0,2.3,26,0.00,CLR,,0.00,WeatherDisplay:10.37,2013-03-29 23:00:00,
2013-03-29 18:05:00,50.2,16.6,30.19,SSW,202,2.0,3.5,26,0.00,CLR,,0.00,WeatherDisplay:10.37,2013-03-29 23:05:00,
2013-03-29 18:10:00,49.6,17.0,30.19,SSW,202,1.6,2.3,27,0.00,CLR,,0.00,WeatherDisplay:10.37,2013-03-29 23:10:00,
2013-03-29 18:15:00,49.1,16.5,30.19,SSW,202,0.0,0.0,27,0.00,CLR,,0.00,WeatherDisplay:10.37,2013-03-29 23:15:00,
2013-03-29 18:20:00,48.6,16.0,30.19,WSW,248,0.0,0.0,27,0.00,CLR,,0.00,WeatherDisplay:10.37,2013-03-29 23:20:00,
2013-03-29 18:25:00,48.4,15.9,30.16,SSW,202,0.0,0.0,27,0.00,CLR,,0.00,WeatherDisplay:10.37,2013-03-29 23:25:00,
2013-03-29 18:30:00,48.6,16.0,30.16,SSW,202,1.4,3.3,27,0.00,CLR,,0.00,WeatherDisplay:10.37,2013-03-29 23:30:00,
2013-03-29 18:35:00,48.0,16.4,30.16,South,180,2.0,2.3,28,0.00,CLR,,0.00,WeatherDisplay:10.37,2013-03-29 23:35:00,
2013-03-29 18:40:00,47.8,16.3,30.19,South,180,2.6,3.5,28,0.00,CLR,,0.00,WeatherDisplay:10.37,2013-03-29 23:40:00,
2013-03-29 18:45:00,47.3,15.8,30.19,South,180,0.0,2.3,28,0.00,CLR,,0.00,WeatherDisplay:10.37,2013-03-29 23:45:00,
2013-03-29 18:50:00,47.3,15.8,30.19,South,180,0.0,0.0,28,0.00,CLR,,0.00,WeatherDisplay:10.37,2013-03-29 23:50:00,
2013-03-29 18:55:00,46.9,15.5,30.19,SW,225,0.0,0.0,28,0.00,CLR,,0.00,WeatherDisplay:10.37,2013-03-29 23:55:00,
2013-03-29 19:00:00,46.2,15.7,30.19,West,270,0.0,0.0,29,0.00,CLR,,0.00,WeatherDisplay:10.37,2013-03-30 00:00:00,
2013-03-29 19:05:00,45.1,15.5,30.19,WNW,292,2.0,2.4,30,0.00,CLR,,0.00,WeatherDisplay:10.37,2013-03-30 00:05:00,
2013-03-29 19:10:00,43.9,15.2,30.19,WNW,292,2.2,2.3,31,0.00,CLR,,0.00,WeatherDisplay:10.37,2013-03-30 00:10:00,
2013-03-29 19:15:00,42.3,15.9,30.19,WNW,292,1.1,2.3,34,0.00,CLR,,0.00,WeatherDisplay:10.37,2013-03-30 00:15:00,
2013-03-29 19:20:00,41.5,15.9,30.19,WNW,292,1.4,2.3,35,0.00,CLR,,0.00,WeatherDisplay:10.37,2013-03-30 00:20:00,
2013-03-29 19:25:00,40.8,17.7,30.19,WNW,292,0.0,0.0,39,0.00,CLR,,0.00,WeatherDisplay:10.37,2013-03-30 00:25:00,
2013-03-29 19:30:00,40.1,17.1,30.19,WNW,292,0.0,0.0,39,0.00,CLR,,0.00,WeatherDisplay:10.37,2013-03-30 00:30:00,
2013-03-29 19:35:00,39.4,16.4,30.19,WNW,292,0.0,0.0,39,0.00,CLR,,0.00,WeatherDisplay:10.37,2013-03-30 00:35:00,
2013-03-29 19:40:00,38.8,16.5,30.19,WNW,292,0.0,0.0,40,0.00,CLR,,0.00,WeatherDisplay:10.37,2013-03-30 00:40:00,
2013-03-29 19:45:00,38.3,16.6,30.19,WNW,292,0.0,0.0,41,0.00,CLR,,0.00,WeatherDisplay:10.37,2013-03-30 00:45:00,
2013-03-29 19:50:00,37.9,16.3,30.19,WNW,292,0.0,0.0,41,0.00,CLR,,0.00,WeatherDisplay:10.37,2013-03-30 00:50:00,
2013-03-29 19:55:00,37.8,16.1,30.19,West,270,0.0,0.0,41,0.00,CLR,,0.00,WeatherDisplay:10.37,2013-03-30 00:55:00,
2013-03-29 20:00:00,37.0,16.6,30.19,West,270,0.0,0.0,43,0.00,CLR,,0.00,WeatherDisplay:10.37,2013-03-30 01:00:00,
2013-03-29 20:05:00,36.7,16.8,30.19,ENE,68,0.0,0.0,44,0.00,CLR,,0.00,WeatherDisplay:10.37,2013-03-30 01:05:00,
2013-03-29 20:10:00,36.1,16.8,30.19,ENE,68,0.0,0.0,45,0.00,CLR,,0.00,WeatherDisplay:10.37,2013-03-30 01:10:00,
2013-03-29 20:16:00,35.6,16.8,30.19,ENE,68,0.0,0.0,46,0.00,CLR,,0.00,WeatherDisplay:10.37,2013-03-30 01:16:00,
2013-03-29 20:21:00,35.1,16.8,30.19,North,0,0.0,1.4,47,0.00,CLR,,0.00,WeatherDisplay:10.37,2013-03-30 01:21:00,
2013-03-29 20:26:00,34.7,16.0,30.19,NW,315,2.2,2.4,46,0.00,CLR,,0.00,WeatherDisplay:10.37,2013-03-30 01:26:00,
2013-03-29 20:31:00,34.3,17.6,30.19,WNW,292,2.0,2.3,50,0.00,CLR,,0.00,WeatherDisplay:10.37,2013-03-30 01:31:00,
2013-03-29 20:36:00,34.3,18.1,30.19,NW,315,0.0,1.1,51,0.00,CLR,,0.00,WeatherDisplay:10.37,2013-03-30 01:36:00,
2013-03-29 20:41:00,34.2,17.9,30.19,NW,315,0.0,0.0,51,0.00,CLR,,0.00,WeatherDisplay:10.37,2013-03-30 01:41:00,
2013-03-29 20:46:00,33.8,18.0,30.19,NW,315,0.0,0.0,52,0.00,CLR,,0.00,WeatherDisplay:10.37,2013-03-30 01:46:00,
2013-03-29 20:51:00,33.6,17.8,30.19,NW,315,0.0,0.0,52,0.00,CLR,,0.00,WeatherDisplay:10.37,2013-03-30 01:51:00,
2013-03-29 20:56:00,33.6,17.8,30.19,NW,315,0.0,0.0,52,0.00,CLR,,0.00,WeatherDisplay:10.37,2013-03-30 01:56:00,
2013-03-29 21:01:00,33.3,17.5,30.19,NW,315,0.0,0.0,52,0.00,CLR,,0.00,WeatherDisplay:10.37,2013-03-30 02:01:00,
2013-03-29 21:06:00,33.1,17.3,30.19,NW,315,0.0,0.0,52,0.00,CLR,,0.00,WeatherDisplay:10.37,2013-03-30 02:06:00,
2013-03-29 21:11:00,32.7,17.5,30.19,NW,315,0.0,0.0,53,0.00,CLR,,0.00,WeatherDisplay:10.37,2013-03-30 02:11:00,
2013-03-29 21:16:00,32.4,17.1,30.19,NW,315,0.0,0.0,53,0.00,CLR,,0.00,WeatherDisplay:10.37,2013-03-30 02:16:00,
2013-03-29 21:22:00,32.2,17.4,30.19,NW,315,0.0,0.0,54,0.00,CLR,,0.00,WeatherDisplay:10.37,2013-03-30 02:22:00,
2013-03-29 21:27:00,31.6,16.9,30.19,NW,315,0.0,0.0,54,0.00,CLR,,0.00,WeatherDisplay:10.37,2013-03-30 02:27:00,
2013-03-29 21:32:00,31.3,16.5,30.19,NW,315,0.0,0.0,54,0.00,CLR,,0.00,WeatherDisplay:10.37,2013-03-30 02:32:00,
2013-03-29 21:37:00,31.3,16.5,30.19,NW,315,2.0,2.3,54,0.00,CLR,,0.00,WeatherDisplay:10.37,2013-03-30 02:37:00,
2013-03-29 21:42:00,31.1,16.8,30.19,WNW,292,1.1,2.3,55,0.00,CLR,,0.00,WeatherDisplay:10.37,2013-03-30 02:42:00,
2013-03-29 21:47:00,31.1,16.8,30.19,WNW,292,0.0,0.0,55,0.00,CLR,,0.00,WeatherDisplay:10.37,2013-03-30 02:47:00,
2013-03-29 21:53:00,31.1,16.8,30.19,WNW,292,0.0,0.0,55,0.00,CLR,,0.00,WeatherDisplay:10.37,2013-03-30 02:53:00,
2013-03-29 21:58:00,31.1,17.2,30.19,WNW,292,0.0,0.0,56,0.00,CLR,,0.00,WeatherDisplay:10.37,2013-03-30 02:58:00,
2013-03-29 22:03:00,31.1,17.2,30.19,WNW,292,0.0,0.0,56,0.00,CLR,,0.00,WeatherDisplay:10.37,2013-03-30 03:03:00,
2013-03-29 22:08:00,31.1,17.2,30.19,WNW,292,0.0,0.0,56,0.00,CLR,,0.00,WeatherDisplay:10.37,2013-03-30 03:08:00,
2013-03-29 22:13:00,31.3,17.4,30.19,WNW,292,0.0,0.0,56,0.00,CLR,,0.00,WeatherDisplay:10.37,2013-03-30 03:13:00,
2013-03-29 22:18:00,31.1,17.2,30.19,WNW,292,0.0,0.0,56,0.00,CLR,,0.00,WeatherDisplay:10.37,2013-03-30 03:18:00,
2013-03-29 22:23:00,31.1,17.6,30.19,WNW,292,0.0,0.0,57,0.00,CLR,,0.00,WeatherDisplay:10.37,2013-03-30 03:23:00,
2013-03-29 22:28:00,31.3,18.2,30.19,WNW,292,0.0,0.0,58,0.00,CLR,,0.00,WeatherDisplay:10.37,2013-03-30 03:28:00,
2013-03-29 22:33:00,31.3,18.2,30.19,WNW,292,0.0,0.0,58,0.00,CLR,,0.00,WeatherDisplay:10.37,2013-03-30 03:33:00,
2013-03-29 22:38:00,31.6,18.5,30.19,WNW,292,0.0,0.0,58,0.00,CLR,,0.00,WeatherDisplay:10.37,2013-03-30 03:38:00,
2013-03-29 22:43:00,31.3,19.0,30.16,WNW,292,0.0,0.0,60,0.00,CLR,,0.00,WeatherDisplay:10.37,2013-03-30 03:43:00,
2013-03-29 22:48:00,31.1,19.2,30.16,WNW,292,0.0,0.0,61,0.00,CLR,,0.00,WeatherDisplay:10.37,2013-03-30 03:48:00,
2013-03-29 22:53:00,30.9,18.7,30.16,WNW,292,0.0,0.0,60,0.00,CLR,,0.00,WeatherDisplay:10.37,2013-03-30 03:53:00,
2013-03-29 22:58:00,30.7,18.5,30.16,WNW,292,0.0,0.0,60,0.00,CLR,,0.00,WeatherDisplay:10.37,2013-03-30 03:58:00,
2013-03-29 23:00:00,30.7,18.5,30.16,WNW,292,0.0,0.0,60,0.00,CLR,,0.00,WeatherDisplay:10.37,2013-03-30 04:00:00,
2013-03-29 23:05:00,30.6,17.9,30.16,WNW,292,0.0,1.1,59,0.00,CLR,,0.00,WeatherDisplay:10.37,2013-03-30 04:05:00,
2013-03-29 23:10:00,30.7,18.1,30.16,WNW,292,0.0,0.0,59,0.00,CLR,,0.00,WeatherDisplay:10.37,2013-03-30 04:10:00,
2013-03-29 23:15:00,30.7,18.1,30.16,WNW,292,0.0,0.0,59,0.00,CLR,,0.00,WeatherDisplay:10.37,2013-03-30 04:15:00,
2013-03-29 23:20:00,30.7,18.1,30.16,WNW,292,0.0,0.0,59,0.00,CLR,,0.00,WeatherDisplay:10.37,2013-03-30 04:20:00,
2013-03-29 23:25:00,30.7,18.1,30.16,WNW,292,0.0,0.0,59,0.00,CLR,,0.00,WeatherDisplay:10.37,2013-03-30 04:25:00,
2013-03-29 23:30:00,30.7,18.5,30.16,WNW,292,0.0,1.1,60,0.00,CLR,,0.00,WeatherDisplay:10.37,2013-03-30 04:30:00,
2013-03-29 23:35:00,30.7,18.1,30.16,WNW,292,1.4,2.3,59,0.00,CLR,,0.00,WeatherDisplay:10.37,2013-03-30 04:35:00,
2013-03-29 23:40:00,30.9,18.7,30.16,WNW,292,0.0,0.0,60,0.00,CLR,,0.00,WeatherDisplay:10.37,2013-03-30 04:40:00,
2013-03-29 23:45:00,31.1,18.8,30.16,WNW,292,0.0,0.0,60,0.00,CLR,,0.00,WeatherDisplay:10.37,2013-03-30 04:45:00,
2013-03-29 23:50:00,31.3,19.4,30.16,WNW,292,0.0,0.0,61,0.00,CLR,,0.00,WeatherDisplay:10.37,2013-03-30 04:50:00,
2013-03-29 23:55:00,31.3,19.4,30.16,WNW,292,0.0,0.0,61,0.00,CLR,,0.00,WeatherDisplay:10.37,2013-03-30 04:55:00,